ASN logo
Accident
Last updated: 23 October 2017
Status:Definitief
Datum:zaterdag 13 oktober 2012
Tijd:18:52
Type:Silhouette image of generic MD11 model; specific model in this crash may look slightly different
McDonnell Douglas MD-11F
Luchtvaartmaatschappij:Centurion Air Cargo
Registratie: N988AR
Constructienummer: 48434/476
Bouwjaar: 1991
Motoren: 3 General Electric CF6-80C2D1F
Bemanning:slachtoffers: 0 / inzittenden: 3
Passagiers:slachtoffers: 0 / inzittenden: 0
Totaal:slachtoffers: 0 / inzittenden: 3
Schade: Afgeschreven
Gevolgen: Written off (damaged beyond repair)
Plaats:São Paulo/Campinas-Viracopos International Airport, SP (VCP) (   Brazilië)
Fase: Landing (LDG)
Soort vlucht:Vracht
Vliegveld van vertrek:Miami International Airport, FL (MIA/KMIA), Verenigde Staten
Vliegveld van aankomst:São Paulo/Campinas-Viracopos International Airport, SP (VCP/SBKP), Brazilië
Vluchtnummer:WE425
Beschrijving:
An McDonnell Douglas MD-11F cargo plane, operated by Centurion Air Cargo, sustained substantial damage in a landing accident at São Paulo/Campinas-Viracopos International Airport, SP (VCP), Brazil.
Flight WE425 operated on a cargo flight from Miami International Airport, FL (MIA), USA. The flight crew performed the IFR ILS Z procedure for runway 15 at Viracopos Airport. The prevailing weather conditions were VMC. The wind was 140 degrees / 19kt. When the aircraft was cleared to land, the wind strength was 20kt, with peak gusts at 29kt. Upon touchdown there was total collapse of the left main landing gear and the aircraft skidded along the runway for 800 meters before the final stop, sustaining damage to the left landing gear, left wing, and left engine.

This same MD-11 was involved in an accident on October 20, 2009 when the right hand main landing gear leg was bent sideways during landing at Montevideo-Carrasco Airport (MVD), Uruguay.

Probable Cause:

Contributing factors.
- Aircraft maintenance - undetermined.
In the tasks that led to the restoration of the aircraft airworthiness after the accident in Uruguay in 2009 (Hard-Landing), and also in subsequent periodic inspections, the existence of pre-crack traces resulting from a previous overload condition may not have been identified, something that could have resulted in a point of stress concentration.

Accident investigation:
cover
Investigating agency: CENIPA
Status: Investigation completed
Duration: 3 years and 6 months
Accident number: A-501/CENIPA/2015
Download report: Final report

Bronnen:
» RAC.com.br
» Scramble 403

METAR Weather report:
20:00 UTC / 17:00 local time:
SBKP - 132000Z 13020KT 9999 FEW025 SCT030 BKN090 19/14 Q1020

21:00 UTC / 18:00 local time:
SBKP - 132100Z 14018KT 9999 FEW018 SCT030 BKN090 18/14 Q1020

22:00 UTC / 19:00 local time:
SBKP - 132200Z 13018G31KT 9999 FEW018 SCT045 BKN090 18/13 Q1020


Foto's

photo of McDonnell Douglas MD-11F N988AR
Add your photo of this accident or aircraft
 

Video, social media

Kaart
Deze kaart geeft het vliegveld van vetrek weer en de geplande bestemming van de vlucht. De lijn tussen de vliegvelden geeft niet de exacte vliegroute weer.
De afstand tussen Miami International Airport, FL en São Paulo/Campinas-Viracopos International Airport, SP bedraagt 6456 km (4035 miles).

This information is not presented as the Flight Safety Foundation or the Aviation Safety Network’s opinion as to the cause of the accident. It is preliminary and is based on the facts as they are known at this time.
languages: languages

Share

MD-11

  • 200 built
  • 9e ongeval
» safety profile